createdAt,value
2023-03-20T00:05:19.290Z,6.13
2023-03-20T00:15:28.079Z,6.20
2023-03-20T00:25:30.617Z,6.24
2023-03-20T00:35:33.857Z,6.30
2023-03-20T00:45:37.309Z,6.26
2023-03-20T00:55:41.249Z,6.13
2023-03-20T01:05:44.600Z,5.99
2023-03-20T01:15:47.957Z,5.79
2023-03-20T01:25:51.010Z,5.71
2023-03-20T01:35:53.898Z,5.70
2023-03-20T01:46:05.219Z,5.65
2023-03-20T01:56:08.251Z,5.67
2023-03-20T02:06:11.828Z,5.64
2023-03-20T02:16:17.293Z,5.60
2023-03-20T02:26:44.948Z,5.62
2023-03-20T02:37:18.448Z,5.66
2023-03-20T02:47:39.440Z,5.71
2023-03-20T02:58:07.876Z,5.70
2023-03-20T03:08:14.662Z,5.79
2023-03-20T03:18:24.268Z,5.91
2023-03-20T03:28:39.670Z,6.06
2023-03-20T03:38:56.576Z,6.30
2023-03-20T03:48:59.942Z,6.48
2023-03-20T03:59:09.957Z,6.55
2023-03-20T04:09:12.365Z,6.56
2023-03-20T04:19:14.688Z,6.57
2023-03-20T04:29:17.114Z,6.59
2023-03-20T04:39:19.634Z,6.57
2023-03-20T04:49:22.373Z,6.55
2023-03-20T04:59:25.020Z,6.49
2023-03-20T05:09:27.984Z,6.46
2023-03-20T05:19:30.567Z,6.46
2023-03-20T05:29:33.148Z,6.43
2023-03-20T05:39:35.859Z,6.41
2023-03-20T05:49:38.525Z,6.40
2023-03-20T05:59:41.430Z,6.40
2023-03-20T06:09:43.816Z,6.46
2023-03-20T06:19:46.323Z,6.52
2023-03-20T06:29:49.142Z,6.60
2023-03-20T06:39:51.928Z,6.73
2023-03-20T06:49:54.543Z,6.91
2023-03-20T06:59:57.132Z,7.17
2023-03-20T07:09:59.839Z,7.39
2023-03-20T07:20:02.520Z,7.64
2023-03-20T07:30:07.045Z,7.92
2023-03-20T07:40:10.474Z,8.08
2023-03-20T07:50:13.076Z,8.17
2023-03-20T08:00:17.295Z,8.35
2023-03-20T08:10:20.380Z,8.60
2023-03-20T08:20:23.201Z,8.85
2023-03-20T08:30:27.658Z,9.18
2023-03-20T08:40:30.855Z,9.63
2023-03-20T08:50:34.131Z,10.12
2023-03-20T09:00:36.798Z,10.42
2023-03-20T09:10:41.195Z,10.61
2023-03-20T09:20:43.684Z,11.11
2023-03-20T09:30:46.692Z,11.16
2023-03-20T09:40:59.490Z,11.84
2023-03-20T09:51:16.568Z,12.65
2023-03-20T10:01:22.862Z,13.27
2023-03-20T10:11:31.504Z,13.31
2023-03-20T10:21:54.316Z,13.68
2023-03-20T10:32:02.932Z,13.53
2023-03-20T10:42:15.234Z,13.14
2023-03-20T10:52:22.752Z,13.03
2023-03-20T11:02:31.017Z,13.19
2023-03-20T11:12:46.589Z,13.50
2023-03-20T11:22:51.202Z,13.52
2023-03-20T11:32:57.589Z,13.56
2023-03-20T11:43:05.175Z,13.85
2023-03-20T11:53:32.859Z,14.41
2023-03-20T12:03:43.417Z,14.73
2023-03-20T12:13:49.868Z,14.70
2023-03-20T12:24:14.464Z,14.75
2023-03-20T12:34:36.149Z,15.40
2023-03-20T12:45:06.408Z,15.46
2023-03-20T12:55:30.438Z,15.71
2023-03-20T13:05:42.340Z,16.01
2023-03-20T13:16:23.394Z,16.11
2023-03-20T13:26:36.895Z,15.98
2023-03-20T13:37:24.419Z,16.06
2023-03-20T13:47:29.428Z,15.81
2023-03-20T13:57:45.272Z,16.13
2023-03-20T14:07:50.094Z,16.09
2023-03-20T14:17:55.315Z,16.83
2023-03-20T14:28:01.405Z,17.34
2023-03-20T14:38:13.072Z,16.93
2023-03-20T14:48:31.477Z,16.74
2023-03-20T14:58:54.330Z,16.62
2023-03-20T15:09:05.836Z,16.23
2023-03-20T15:19:20.125Z,16.84
2023-03-20T15:29:23.194Z,16.60
2023-03-20T15:39:28.975Z,16.47
2023-03-20T15:49:33.276Z,16.65
2023-03-20T15:59:36.189Z,16.25
2023-03-20T16:09:45.976Z,15.80
2023-03-20T16:19:49.779Z,15.20
2023-03-20T16:29:54.958Z,14.56
2023-03-20T16:40:21.410Z,14.49
2023-03-20T16:50:35.726Z,14.58
2023-03-20T17:00:52.771Z,14.46
2023-03-20T17:10:59.465Z,13.76
2023-03-20T17:21:02.202Z,13.08
2023-03-20T17:31:06.795Z,12.51
2023-03-20T17:41:13.452Z,11.97
2023-03-20T17:51:15.985Z,11.40
2023-03-20T18:01:18.856Z,10.79
2023-03-20T18:11:22.397Z,10.18
2023-03-20T18:21:26.435Z,9.68
2023-03-20T18:31:30.116Z,9.37
2023-03-20T18:41:34.204Z,9.13
2023-03-20T18:51:37.622Z,8.93
2023-03-20T19:01:41.480Z,8.48
2023-03-20T19:11:45.231Z,8.04
2023-03-20T19:21:48.681Z,7.78
2023-03-20T19:31:52.261Z,7.76
2023-03-20T19:41:55.955Z,7.79
2023-03-20T19:51:59.429Z,7.73
2023-03-20T20:02:03.242Z,7.56
2023-03-20T20:12:07.032Z,7.42
2023-03-20T20:22:22.454Z,7.11
2023-03-20T20:32:37.604Z,6.76
2023-03-20T20:42:43.397Z,6.43
2023-03-20T20:52:47.169Z,6.15
2023-03-20T21:02:50.804Z,5.86
2023-03-20T21:13:03.917Z,5.65
2023-03-20T21:23:07.437Z,5.39
2023-03-20T21:33:11.238Z,5.18
2023-03-20T21:43:16.718Z,4.99
2023-03-20T22:15:11.902Z,4.57
2023-03-20T22:45:24.034Z,4.12
2023-03-20T22:55:30.169Z,3.98
2023-03-20T23:05:37.636Z,3.87
2023-03-20T23:15:41.820Z,3.72
2023-03-20T23:25:45.497Z,3.56
2023-03-20T23:35:51.254Z,3.49
2023-03-20T23:45:54.950Z,3.37
2023-03-20T23:55:59.082Z,3.23
